Terminal Aerodrome Forecast
Issued by NWS

Home | Current Version | Previous Version | Text Only | Print | Product List | Glossary On
Versions: 1 2 3 4 5 6 7 8 9 10 11 12 13 14 15 16 17 18 19
000
FTUS44 KLZK 241100
TAFLLQ
TAF
KLLQ 241139Z 2412/2512 17005KT P6SM SCT060 OVC250
     FM241500 20009KT P6SM SCT040 OVC250
     FM242000 21012G22KT P6SM VCSH BKN040
      TEMPO 2420/2424 5SM TSRA BR OVC030CB
     FM250300 27010G20KT P6SM SCT040=

USA.gov is the U.S. government's official web portal to all federal, state and local government web resources and services.